Time;durP1;ratioP1;P1;durP2;ratioP2;P2;SDS_P1;SDS_P2;PMS_P1;PMS_P2;Temp;Humidity;BMP_temperature;BMP_pressure;BME280_temperature;BME280_humidity;BME280_pressure;Samples;Min_cycle;Max_cycle;Signal;HPM_P1;HPM_P2
2024/01/28 00:00:38;;;;;;;;;;;-1.00;99.90;;;;;;5134572;27;20014;-82
2024/01/28 00:03:04;;;;;;;;;;;-1.00;99.90;;;;;;5100605;27;20279;-83
2024/01/28 00:05:29;;;;;;;;;;;-0.90;99.90;;;;;;5100527;27;19923;-83
2024/01/28 00:07:55;;;;;;;;;;;-1.00;99.90;;;;;;5100671;27;19911;-83
2024/01/28 00:10:21;;;;;;;;;;;-1.10;99.90;;;;;;5100949;27;19933;-83
2024/01/28 00:12:46;;;;;;;;;;;-1.10;99.90;;;;;;5100588;27;20362;-84
2024/01/28 00:15:12;;;;;;;;;;;-1.10;99.90;;;;;;5117854;27;19941;-84
2024/01/28 00:17:37;;;;;;;;;;;-1.10;99.90;;;;;;5099559;27;19950;-84
2024/01/28 00:20:05;;;;;;;;;;;-1.10;99.90;;;;;;5101099;27;20451;-84
2024/01/28 00:22:31;;;;;;;;;;;-1.10;99.90;;;;;;5117876;27;19915;-84
2024/01/28 00:24:57;;;;;;;;;;;-1.00;99.90;;;;;;5117948;27;20355;-84
2024/01/28 00:27:22;;;;;;;;;;;-1.00;99.90;;;;;;5100534;27;19912;-84
2024/01/28 00:29:48;;;;;;;;;;;-0.90;99.90;;;;;;5100856;27;19919;-84
2024/01/28 00:32:13;;;;;;;;;;;-0.80;99.90;;;;;;5099863;27;19964;-84
2024/01/28 00:34:39;;;;;;;;;;;-0.80;99.90;;;;;;5100510;27;19912;-86
2024/01/28 00:37:05;;;;;;;;;;;-0.80;99.90;;;;;;5100646;27;19907;-85
2024/01/28 00:39:30;;;;;;;;;;;-0.70;99.90;;;;;;5101800;27;20265;-85
2024/01/28 00:41:56;;;;;;;;;;;-0.70;99.90;;;;;;5151741;27;19944;-85
2024/01/28 00:44:21;;;;;;;;;;;-0.70;99.90;;;;;;5117404;27;19923;-85
2024/01/28 00:46:47;;;;;;;;;;;-0.70;99.90;;;;;;5117664;27;19908;-84
2024/01/28 00:49:13;;;;;;;;;;;-0.70;99.90;;;;;;5152486;27;19918;-84
2024/01/28 00:51:39;;;;;;;;;;;-0.70;99.90;;;;;;5151928;27;20200;-83
2024/01/28 00:54:05;;;;;;;;;;;-0.70;99.90;;;;;;5115764;27;19961;-84
2024/01/28 00:56:31;;;;;;;;;;;-0.80;99.90;;;;;;5115518;27;20331;-84
2024/01/28 00:58:56;;;;;;;;;;;-0.80;99.90;;;;;;5116362;27;19915;-84
2024/01/28 01:01:22;;;;;;;;;;;-1.00;99.90;;;;;;5116092;27;19908;-84
2024/01/28 01:03:48;;;;;;;;;;;-1.00;99.90;;;;;;5117145;27;19912;-84
2024/01/28 01:06:13;;;;;;;;;;;-1.00;99.90;;;;;;5117658;27;19915;-85
2024/01/28 01:08:39;;;;;;;;;;;-1.10;99.90;;;;;;5117254;27;20504;-87
2024/01/28 01:11:06;;;;;;;;;;;-1.30;99.90;;;;;;5118030;27;20358;-86
2024/01/28 01:13:32;;;;;;;;;;;-1.40;99.90;;;;;;5136348;27;20384;-85
2024/01/28 01:15:58;;;;;;;;;;;-1.50;99.90;;;;;;5100423;27;19950;-85
2024/01/28 01:18:24;;;;;;;;;;;-1.60;99.90;;;;;;5117967;27;20358;-85
2024/01/28 01:20:49;;;;;;;;;;;-1.70;99.90;;;;;;5117110;27;20010;-85
2024/01/28 01:23:15;;;;;;;;;;;-1.80;99.90;;;;;;5100087;27;19915;-85
2024/01/28 01:25:41;;;;;;;;;;;-1.80;99.90;;;;;;5134205;27;19983;-86
2024/01/28 01:28:06;;;;;;;;;;;-1.80;99.90;;;;;;5150165;27;20005;-85
2024/01/28 01:30:32;;;;;;;;;;;-1.70;99.90;;;;;;5117471;27;19915;-84
2024/01/28 01:32:57;;;;;;;;;;;-1.60;99.90;;;;;;5117080;27;20048;-85
2024/01/28 01:35:23;;;;;;;;;;;-1.50;99.90;;;;;;5117062;27;19918;-85
2024/01/28 01:37:49;;;;;;;;;;;-1.50;99.90;;;;;;5116957;27;19915;-84
2024/01/28 01:40:14;;;;;;;;;;;-1.50;99.90;;;;;;5116742;27;19964;-85
2024/01/28 01:42:42;;;;;;;;;;;-1.60;99.90;;;;;;5100532;27;19907;-85
2024/01/28 01:45:08;;;;;;;;;;;-1.60;99.90;;;;;;5116479;27;20026;-86
2024/01/28 01:47:33;;;;;;;;;;;-1.70;99.90;;;;;;5135160;27;19954;-85
2024/01/28 01:49:59;;;;;;;;;;;-1.70;99.90;;;;;;5150991;27;19920;-85
2024/01/28 01:52:25;;;;;;;;;;;-1.80;99.90;;;;;;5116366;27;19937;-84
2024/01/28 01:54:51;;;;;;;;;;;-1.90;99.90;;;;;;5115758;27;19918;-85
2024/01/28 01:57:17;;;;;;;;;;;-1.90;99.90;;;;;;5099120;27;19998;-85
2024/01/28 01:59:43;;;;;;;;;;;-1.90;99.90;;;;;;5099020;27;19922;-84
2024/01/28 02:02:09;;;;;;;;;;;-1.70;99.90;;;;;;5116411;28;20592;-85
2024/01/28 02:04:35;;;;;;;;;;;-1.60;99.90;;;;;;5149913;27;19918;-85
2024/01/28 02:07:01;;;;;;;;;;;-1.40;99.90;;;;;;5115879;27;19980;-85
2024/01/28 02:09:27;;;;;;;;;;;-1.30;99.90;;;;;;5116658;28;20350;-87
2024/01/28 02:11:52;;;;;;;;;;;-1.20;99.90;;;;;;5115662;28;20278;-84
2024/01/28 02:14:21;;;;;;;;;;;-1.20;99.90;;;;;;5150850;27;19911;-85
2024/01/28 02:16:48;;;;;;;;;;;-1.20;99.90;;;;;;5116229;28;19912;-84
2024/01/28 02:19:14;;;;;;;;;;;-1.30;99.90;;;;;;5116058;28;20351;-85
2024/01/28 02:21:39;;;;;;;;;;;-1.30;99.90;;;;;;5098820;28;19912;-84
2024/01/28 02:24:05;;;;;;;;;;;-1.30;99.90;;;;;;5150598;27;19960;-85
2024/01/28 02:26:30;;;;;;;;;;;-1.30;99.90;;;;;;5133203;28;19914;-86
2024/01/28 02:28:57;;;;;;;;;;;-1.30;99.90;;;;;;5116848;28;20019;-84
2024/01/28 02:31:23;;;;;;;;;;;-1.30;99.90;;;;;;5115586;28;19938;-85
2024/01/28 02:33:48;;;;;;;;;;;-1.30;99.90;;;;;;5115893;28;20351;-85
2024/01/28 02:36:14;;;;;;;;;;;-1.30;99.90;;;;;;5115935;28;20271;-85
2024/01/28 02:38:39;;;;;;;;;;;-1.30;99.90;;;;;;5116054;28;19918;-84
2024/01/28 02:41:05;;;;;;;;;;;-1.30;99.90;;;;;;5119506;27;19919;-85
2024/01/28 02:43:30;;;;;;;;;;;-1.10;99.90;;;;;;5119779;27;20592;-85
2024/01/28 02:45:56;;;;;;;;;;;-1.00;99.90;;;;;;5119570;27;19916;-85
2024/01/28 02:48:22;;;;;;;;;;;-0.90;99.90;;;;;;5119903;27;19915;-85
2024/01/28 02:50:47;;;;;;;;;;;-0.80;99.90;;;;;;5119913;27;20267;-84
2024/01/28 02:53:13;;;;;;;;;;;-0.80;99.90;;;;;;5120527;27;20606;-85
2024/01/28 02:55:38;;;;;;;;;;;-0.70;99.90;;;;;;5120168;27;19958;-86
2024/01/28 02:58:04;;;;;;;;;;;-0.60;99.90;;;;;;5119544;27;20019;-84
2024/01/28 03:00:30;;;;;;;;;;;-0.50;99.90;;;;;;5102838;27;19919;-85
2024/01/28 03:02:56;;;;;;;;;;;-0.50;99.90;;;;;;5153895;27;20001;-85
2024/01/28 03:05:21;;;;;;;;;;;-0.50;99.90;;;;;;5119606;27;19919;-84
2024/01/28 03:07:47;;;;;;;;;;;-0.50;99.90;;;;;;5154620;27;20251;-85
2024/01/28 03:10:12;;;;;;;;;;;-0.50;99.90;;;;;;5119503;27;19919;-86
2024/01/28 03:12:38;;;;;;;;;;;-0.50;99.90;;;;;;5137258;27;19954;-84
2024/01/28 03:15:04;;;;;;;;;;;-0.50;99.90;;;;;;5119443;27;20012;-85
2024/01/28 03:17:30;;;;;;;;;;;-0.50;99.90;;;;;;5102147;27;19960;-84
2024/01/28 03:19:55;;;;;;;;;;;-0.60;99.90;;;;;;5154044;27;19919;-85
2024/01/28 03:22:21;;;;;;;;;;;-0.70;99.90;;;;;;5138042;27;19911;-85
2024/01/28 03:24:47;;;;;;;;;;;-0.80;99.90;;;;;;5119689;27;20362;-84
2024/01/28 03:27:13;;;;;;;;;;;-0.80;99.90;;;;;;5119444;27;19912;-86
2024/01/28 03:29:38;;;;;;;;;;;-0.90;99.90;;;;;;5101389;27;20378;-85
2024/01/28 03:32:04;;;;;;;;;;;-0.90;99.90;;;;;;5135103;27;19923;-83
2024/01/28 03:34:30;;;;;;;;;;;-0.90;99.90;;;;;;5136221;27;20283;-85
2024/01/28 03:36:56;;;;;;;;;;;-0.90;99.90;;;;;;5118058;27;19918;-85
2024/01/28 03:39:21;;;;;;;;;;;-0.90;99.90;;;;;;5118100;27;19956;-85
2024/01/28 03:41:47;;;;;;;;;;;-0.90;99.90;;;;;;5118261;27;19907;-85
2024/01/28 03:44:17;;;;;;;;;;;-0.90;99.90;;;;;;5117885;27;19911;-85
2024/01/28 03:46:42;;;;;;;;;;;-0.90;99.90;;;;;;5118597;27;19998;-84
2024/01/28 03:49:08;;;;;;;;;;;-0.80;99.90;;;;;;5118056;27;20006;-84
2024/01/28 03:51:33;;;;;;;;;;;-0.90;99.90;;;;;;5116408;27;19919;-85
2024/01/28 03:53:59;;;;;;;;;;;-0.80;99.90;;;;;;5118125;27;19955;-84
2024/01/28 03:56:24;;;;;;;;;;;-0.60;99.90;;;;;;5117735;27;19915;-85
2024/01/28 03:58:50;;;;;;;;;;;-0.50;99.90;;;;;;5118103;27;20041;-84
2024/01/28 04:01:16;;;;;;;;;;;-0.40;99.90;;;;;;5117595;27;20359;-84
2024/01/28 04:03:41;;;;;;;;;;;-0.50;99.90;;;;;;5152354;27;19919;-85
2024/01/28 04:06:07;;;;;;;;;;;-0.50;99.90;;;;;;5152158;27;19911;-85
2024/01/28 04:08:32;;;;;;;;;;;-0.50;99.90;;;;;;5117705;27;19919;-84
2024/01/28 04:10:58;;;;;;;;;;;-0.50;99.90;;;;;;5117558;27;20294;-84
2024/01/28 04:13:24;;;;;;;;;;;-0.60;99.90;;;;;;5151514;27;20831;-85
2024/01/28 04:15:50;;;;;;;;;;;-0.70;99.90;;;;;;5117386;27;20710;-85
2024/01/28 04:18:17;;;;;;;;;;;-0.80;99.90;;;;;;5118426;27;19911;-84
2024/01/28 04:20:43;;;;;;;;;;;-0.90;99.90;;;;;;5117999;27;19908;-85
2024/01/28 04:23:08;;;;;;;;;;;-1.00;99.90;;;;;;5152069;27;19916;-84
2024/01/28 04:25:34;;;;;;;;;;;-1.10;99.90;;;;;;5117992;27;19964;-82
2024/01/28 04:27:59;;;;;;;;;;;-1.10;99.90;;;;;;5118001;27;20385;-85
2024/01/28 04:30:25;;;;;;;;;;;-1.00;99.90;;;;;;5117574;27;19911;-85
2024/01/28 04:32:51;;;;;;;;;;;-0.90;99.90;;;;;;5120099;27;20339;-84
2024/01/28 04:35:16;;;;;;;;;;;-1.00;99.90;;;;;;5124738;27;19922;-84
2024/01/28 04:37:42;;;;;;;;;;;-1.00;99.90;;;;;;5117642;27;19941;-84
2024/01/28 04:40:07;;;;;;;;;;;-1.10;99.90;;;;;;5152283;27;20278;-84
2024/01/28 04:46:02;;;;;;;;;;;-1.10;99.90;;;;;;5132746;27;19940;-85
2024/01/28 04:48:27;;;;;;;;;;;-1.10;99.90;;;;;;5116206;27;19931;-84
2024/01/28 04:50:53;;;;;;;;;;;-1.10;99.90;;;;;;5116233;27;20395;-85
2024/01/28 04:53:19;;;;;;;;;;;-1.10;99.90;;;;;;5116218;27;19911;-85
2024/01/28 04:55:44;;;;;;;;;;;-1.00;99.90;;;;;;5116474;27;19947;-85
2024/01/28 04:58:10;;;;;;;;;;;-1.00;99.90;;;;;;5150897;27;20282;-85
2024/01/28 05:00:35;;;;;;;;;;;-1.10;99.90;;;;;;5133377;27;20006;-85
2024/01/28 05:03:01;;;;;;;;;;;-1.20;99.90;;;;;;5116362;27;19919;-85
2024/01/28 05:05:27;;;;;;;;;;;-1.30;99.90;;;;;;5133615;27;19915;-85
2024/01/28 05:08:30;;;;;;;;;;;-1.40;99.90;;;;;;5116364;27;19995;-85
2024/01/28 05:10:57;;;;;;;;;;;-1.50;99.90;;;;;;5133230;27;19915;-85
2024/01/28 05:13:23;;;;;;;;;;;-1.50;99.90;;;;;;5150791;27;19915;-85
2024/01/28 05:15:48;;;;;;;;;;;-1.50;99.90;;;;;;5116583;27;20357;-85
2024/01/28 05:18:15;;;;;;;;;;;-1.60;99.90;;;;;;5134112;27;20419;-85
2024/01/28 05:20:41;;;;;;;;;;;-1.60;99.90;;;;;;5116754;27;19971;-84
2024/01/28 05:23:06;;;;;;;;;;;-1.40;99.90;;;;;;5116418;27;19966;-85
2024/01/28 05:25:32;;;;;;;;;;;-1.40;99.90;;;;;;5115630;27;19911;-82
2024/01/28 05:27:57;;;;;;;;;;;-1.40;99.90;;;;;;5132940;27;20699;-83
2024/01/28 05:30:23;;;;;;;;;;;-1.30;99.90;;;;;;5133310;27;19911;-83
2024/01/28 05:32:49;;;;;;;;;;;-1.20;99.90;;;;;;5115637;27;20556;-83
2024/01/28 05:35:15;;;;;;;;;;;-1.20;99.90;;;;;;5116211;27;20010;-83
2024/01/28 05:37:41;;;;;;;;;;;-1.20;99.90;;;;;;5132451;27;20035;-83
2024/01/28 05:40:08;;;;;;;;;;;-1.10;99.90;;;;;;5115943;27;20401;-83
2024/01/28 05:42:34;;;;;;;;;;;-1.10;99.90;;;;;;5098447;27;19918;-84
2024/01/28 05:44:59;;;;;;;;;;;-1.00;99.90;;;;;;5115319;27;19915;-84
2024/01/28 05:47:25;;;;;;;;;;;-0.90;99.90;;;;;;5115630;27;19957;-85
2024/01/28 05:49:51;;;;;;;;;;;-0.90;99.90;;;;;;5129289;27;19916;-84
2024/01/28 05:52:16;;;;;;;;;;;-0.90;99.90;;;;;;5115558;27;19920;-85
2024/01/28 05:54:42;;;;;;;;;;;-0.90;99.90;;;;;;5115867;27;19918;-84
2024/01/28 05:57:09;;;;;;;;;;;-0.80;99.90;;;;;;5115663;27;19912;-85
2024/01/28 05:59:35;;;;;;;;;;;-0.60;99.90;;;;;;5115689;27;19911;-85
2024/01/28 06:02:01;;;;;;;;;;;-0.50;99.90;;;;;;5098744;28;19915;-84
2024/01/28 06:04:27;;;;;;;;;;;-0.50;99.90;;;;;;5115416;28;20309;-85
2024/01/28 06:06:53;;;;;;;;;;;-0.30;99.90;;;;;;5115365;27;20014;-84
2024/01/28 06:09:19;;;;;;;;;;;-0.40;99.90;;;;;;5116060;28;19931;-83
2024/01/28 06:11:45;;;;;;;;;;;-0.30;99.90;;;;;;5115352;28;19954;-85
2024/01/28 06:14:11;;;;;;;;;;;-0.30;99.90;;;;;;5114708;28;19961;-85
2024/01/28 06:16:37;;;;;;;;;;;-0.20;99.90;;;;;;5115576;28;20342;-85
2024/01/28 06:19:02;;;;;;;;;;;-0.30;99.90;;;;;;5133517;28;20277;-84
2024/01/28 06:21:28;;;;;;;;;;;-0.40;99.90;;;;;;5115630;28;19950;-85
2024/01/28 06:23:54;;;;;;;;;;;-0.50;99.90;;;;;;5097710;28;19915;-84
2024/01/28 06:26:20;;;;;;;;;;;-0.60;99.90;;;;;;5115261;28;19919;-85
2024/01/28 06:28:46;;;;;;;;;;;-0.60;99.90;;;;;;5098370;28;19912;-85
2024/01/28 06:31:13;;;;;;;;;;;-0.70;99.90;;;;;;5097797;28;19987;-84
2024/01/28 06:33:39;;;;;;;;;;;-0.80;99.90;;;;;;5097901;28;19922;-84
2024/01/28 06:36:05;;;;;;;;;;;-0.90;99.90;;;;;;5098455;28;20366;-84
2024/01/28 06:38:30;;;;;;;;;;;-0.80;99.90;;;;;;5115255;28;19916;-85
2024/01/28 06:40:57;;;;;;;;;;;-0.80;99.90;;;;;;5114502;28;20597;-84
2024/01/28 06:43:25;;;;;;;;;;;-0.80;99.90;;;;;;5098457;28;20536;-84
2024/01/28 06:45:54;;;;;;;;;;;-0.80;99.90;;;;;;5149601;27;19911;-84
2024/01/28 06:48:19;;;;;;;;;;;-0.90;99.90;;;;;;5114667;28;19911;-84
2024/01/28 06:50:46;;;;;;;;;;;-0.90;99.90;;;;;;5132256;28;19922;-84
2024/01/28 06:53:12;;;;;;;;;;;-0.80;99.90;;;;;;5098098;28;19915;-84
2024/01/28 06:55:37;;;;;;;;;;;-0.80;99.90;;;;;;5113694;28;19939;-84
2024/01/28 06:58:03;;;;;;;;;;;-0.70;99.90;;;;;;5114513;28;19911;-84
2024/01/28 07:00:29;;;;;;;;;;;-0.70;99.90;;;;;;5098437;28;19934;-84
2024/01/28 07:02:54;;;;;;;;;;;-0.70;99.90;;;;;;5115316;28;19919;-85
2024/01/28 07:05:20;;;;;;;;;;;-0.60;99.90;;;;;;5133851;28;19994;-85
2024/01/28 07:07:46;;;;;;;;;;;-0.50;99.90;;;;;;5115320;28;20032;-84
2024/01/28 07:10:12;;;;;;;;;;;-0.50;99.90;;;;;;5098197;28;19912;-85
2024/01/28 07:12:38;;;;;;;;;;;-0.60;99.90;;;;;;5133123;28;20093;-85
2024/01/28 07:18:33;;;;;;;;;;;-0.60;99.90;;;;;;5133260;28;20018;-85
2024/01/28 07:20:59;;;;;;;;;;;-0.60;99.90;;;;;;5114431;28;19978;-85
2024/01/28 07:23:25;;;;;;;;;;;-0.60;99.90;;;;;;5114378;28;20342;-85
2024/01/28 07:25:50;;;;;;;;;;;-0.60;99.90;;;;;;5114355;28;19950;-85
2024/01/28 07:28:16;;;;;;;;;;;-0.50;99.90;;;;;;5117074;27;19920;-84
2024/01/28 07:30:43;;;;;;;;;;;-0.40;99.90;;;;;;5135116;27;19915;-84
2024/01/28 07:33:08;;;;;;;;;;;-0.30;99.90;;;;;;5118297;27;20055;-84
2024/01/28 07:35:34;;;;;;;;;;;-0.30;99.90;;;;;;5153079;27;19968;-84
2024/01/28 07:38:00;;;;;;;;;;;-0.20;99.90;;;;;;5101339;27;19915;-84
2024/01/28 07:40:25;;;;;;;;;;;-0.20;99.90;;;;;;5117928;27;19911;-84
2024/01/28 07:42:51;;;;;;;;;;;-0.10;99.90;;;;;;5118044;27;19915;-85
2024/01/28 07:45:17;;;;;;;;;;;0.10;99.90;;;;;;5118292;27;20389;-84
2024/01/28 07:47:43;;;;;;;;;;;0.30;99.90;;;;;;5117824;27;19918;-85
2024/01/28 07:50:08;;;;;;;;;;;0.40;99.90;;;;;;5117809;27;19919;-85
2024/01/28 07:52:34;;;;;;;;;;;0.60;99.90;;;;;;5101398;27;19973;-86
2024/01/28 07:55:00;;;;;;;;;;;0.70;99.90;;;;;;5118012;27;20026;-85
2024/01/28 07:57:25;;;;;;;;;;;0.70;99.90;;;;;;5117797;27;20371;-84
2024/01/28 07:59:51;;;;;;;;;;;0.80;99.90;;;;;;5118175;27;19918;-85
2024/01/28 08:02:17;;;;;;;;;;;0.90;99.90;;;;;;5101473;27;19960;-84
2024/01/28 08:04:44;;;;;;;;;;;0.90;99.90;;;;;;5118131;27;19916;-85
2024/01/28 08:07:09;;;;;;;;;;;1.00;99.90;;;;;;5118479;27;19924;-84
2024/01/28 08:09:36;;;;;;;;;;;1.20;99.90;;;;;;5153011;27;19916;-85
2024/01/28 08:12:03;;;;;;;;;;;1.20;99.90;;;;;;5135588;27;20362;-84
2024/01/28 08:14:29;;;;;;;;;;;1.30;99.90;;;;;;5117715;27;20479;-85
2024/01/28 08:16:55;;;;;;;;;;;1.30;99.90;;;;;;5118159;27;19916;-85
2024/01/28 08:19:20;;;;;;;;;;;1.40;99.90;;;;;;5118211;27;19912;-85
2024/01/28 08:21:47;;;;;;;;;;;1.50;99.90;;;;;;5117478;27;19915;-85
2024/01/28 08:24:12;;;;;;;;;;;1.50;99.90;;;;;;5100753;27;19912;-85
2024/01/28 08:26:38;;;;;;;;;;;1.60;99.90;;;;;;5135548;27;19952;-84
2024/01/28 08:29:04;;;;;;;;;;;1.70;99.90;;;;;;5118267;27;20398;-84
2024/01/28 08:31:30;;;;;;;;;;;1.80;99.90;;;;;;5117116;27;19958;-84
2024/01/28 08:33:55;;;;;;;;;;;1.90;99.90;;;;;;5117692;27;19919;-84
2024/01/28 08:36:21;;;;;;;;;;;2.00;99.90;;;;;;5118521;27;19912;-84
2024/01/28 08:38:47;;;;;;;;;;;2.00;99.90;;;;;;5115988;27;19915;-84
2024/01/28 08:41:12;;;;;;;;;;;2.00;99.90;;;;;;5117511;27;19908;-85
2024/01/28 08:43:38;;;;;;;;;;;2.10;99.90;;;;;;5133334;27;20044;-85
2024/01/28 08:46:04;;;;;;;;;;;2.30;99.90;;;;;;5117688;27;19959;-84
2024/01/28 08:48:30;;;;;;;;;;;2.30;99.90;;;;;;5117247;27;19915;-84
2024/01/28 08:50:56;;;;;;;;;;;2.50;99.90;;;;;;5099897;27;19996;-85
2024/01/28 08:53:21;;;;;;;;;;;2.60;99.90;;;;;;5151626;27;19934;-83
2024/01/28 08:55:47;;;;;;;;;;;2.70;99.90;;;;;;5117713;27;19915;-83
2024/01/28 08:58:12;;;;;;;;;;;2.80;99.90;;;;;;5116735;27;19915;-84
2024/01/28 09:00:38;;;;;;;;;;;2.80;99.90;;;;;;5116579;27;19911;-84
2024/01/28 09:03:04;;;;;;;;;;;2.80;99.90;;;;;;5117958;27;20003;-85
2024/01/28 09:05:30;;;;;;;;;;;2.90;99.90;;;;;;5099927;27;19912;-85
2024/01/28 09:08:03;;;;;;;;;;;3.00;99.90;;;;;;5116535;27;20311;-85
2024/01/28 09:10:28;;;;;;;;;;;3.00;99.90;;;;;;5116907;27;19956;-84
2024/01/28 09:12:54;;;;;;;;;;;3.10;99.90;;;;;;5116330;27;20286;-85
2024/01/28 09:15:20;;;;;;;;;;;3.10;99.90;;;;;;5151496;27;20366;-85
2024/01/28 09:17:45;;;;;;;;;;;3.20;99.90;;;;;;5116805;27;19936;-84
2024/01/28 09:20:11;;;;;;;;;;;3.30;99.90;;;;;;5117720;27;19968;-84
2024/01/28 09:22:37;;;;;;;;;;;3.40;99.90;;;;;;5135065;27;20374;-85
2024/01/28 09:25:03;;;;;;;;;;;3.40;99.90;;;;;;5100412;27;19919;-85
2024/01/28 09:27:29;;;;;;;;;;;3.50;99.90;;;;;;5151311;27;19918;-86
2024/01/28 09:29:54;;;;;;;;;;;3.60;99.90;;;;;;5101068;27;19912;-85
2024/01/28 09:32:20;;;;;;;;;;;3.70;99.90;;;;;;5117337;27;19922;-85
2024/01/28 09:34:46;;;;;;;;;;;3.80;99.90;;;;;;5120066;27;20006;-85
2024/01/28 09:37:27;;;;;;;;;;;3.80;99.90;;;;;;5118698;27;19915;-84
2024/01/28 09:39:52;;;;;;;;;;;3.80;99.90;;;;;;5118161;27;19918;-84
2024/01/28 09:42:36;;;;;;;;;;;3.90;99.90;;;;;;5118302;27;19943;-85
2024/01/28 09:45:02;;;;;;;;;;;4.00;99.90;;;;;;5135219;27;19922;-85
2024/01/28 09:47:28;;;;;;;;;;;4.00;99.90;;;;;;5117358;27;19975;-86
2024/01/28 09:49:55;;;;;;;;;;;4.10;99.90;;;;;;5117225;27;20422;-85
2024/01/28 09:52:21;;;;;;;;;;;4.10;99.90;;;;;;5100924;27;19915;-85
2024/01/28 09:54:47;;;;;;;;;;;4.20;99.90;;;;;;5118770;27;19976;-85
2024/01/28 09:57:14;;;;;;;;;;;4.30;99.90;;;;;;5138788;27;19912;-86
2024/01/28 09:59:39;;;;;;;;;;;4.30;99.90;;;;;;5122828;27;19956;-86
2024/01/28 10:02:30;;;;;;;;;;;4.40;99.90;;;;;;5122151;27;20413;-85
2024/01/28 10:04:56;;;;;;;;;;;4.50;99.90;;;;;;5122334;27;19915;-84
2024/01/28 10:07:22;;;;;;;;;;;4.60;99.90;;;;;;5128096;27;19915;-84
2024/01/28 10:09:49;;;;;;;;;;;4.80;99.90;;;;;;5100112;27;19912;-85
2024/01/28 10:12:15;;;;;;;;;;;4.90;99.90;;;;;;5117521;28;19919;-86
2024/01/28 10:14:48;;;;;;;;;;;5.00;99.90;;;;;;5151410;27;20301;-86
2024/01/28 10:17:29;;;;;;;;;;;5.20;99.90;;;;;;5117239;28;19941;-86
2024/01/28 10:19:55;;;;;;;;;;;5.30;99.90;;;;;;5134847;28;19949;-85
2024/01/28 10:22:20;;;;;;;;;;;5.50;99.90;;;;;;5151571;27;19915;-86
2024/01/28 10:24:46;;;;;;;;;;;5.60;99.90;;;;;;5116976;28;19911;-85
2024/01/28 10:27:12;;;;;;;;;;;5.70;99.90;;;;;;5116954;28;19970;-85
2024/01/28 10:29:39;;;;;;;;;;;5.70;99.90;;;;;;5135674;28;19986;-86
2024/01/28 10:32:04;;;;;;;;;;;5.90;99.90;;;;;;5099536;28;19915;-85
2024/01/28 10:34:30;;;;;;;;;;;6.20;99.90;;;;;;5116576;28;19911;-85
2024/01/28 10:36:58;;;;;;;;;;;6.60;99.90;;;;;;5150927;27;20266;-86
2024/01/28 10:39:23;;;;;;;;;;;7.30;99.90;;;;;;5099978;28;19959;-86
2024/01/28 10:41:52;;;;;;;;;;;7.90;99.90;;;;;;5116462;28;19915;-85
2024/01/28 10:44:19;;;;;;;;;;;8.00;99.90;;;;;;5098784;28;19912;-86
2024/01/28 10:46:45;;;;;;;;;;;8.10;99.90;;;;;;5098442;28;20644;-85
2024/01/28 10:49:11;;;;;;;;;;;8.00;99.90;;;;;;5116423;28;19912;-85
2024/01/28 10:51:38;;;;;;;;;;;7.90;99.90;;;;;;5115963;28;19922;-86
2024/01/28 10:54:04;;;;;;;;;;;7.60;99.90;;;;;;5134745;28;20323;-85
2024/01/28 10:56:31;;;;;;;;;;;7.60;99.90;;;;;;5099269;28;19961;-85
2024/01/28 10:58:57;;;;;;;;;;;7.50;99.90;;;;;;5116280;28;19911;-85
2024/01/28 11:01:24;;;;;;;;;;;7.30;99.90;;;;;;5101189;27;19907;-86
2024/01/28 11:03:51;;;;;;;;;;;7.30;99.90;;;;;;5103268;27;19911;-85
2024/01/28 11:06:17;;;;;;;;;;;7.30;99.90;;;;;;5120080;27;20631;-85
2024/01/28 11:08:46;;;;;;;;;;;7.20;99.90;;;;;;5103902;27;20671;-85
2024/01/28 11:11:12;;;;;;;;;;;7.30;99.90;;;;;;5120395;27;20363;-85
2024/01/28 11:13:38;;;;;;;;;;;7.50;99.90;;;;;;5154421;27;19914;-86
2024/01/28 11:16:07;;;;;;;;;;;7.60;99.90;;;;;;5119973;27;19920;-85
2024/01/28 11:18:33;;;;;;;;;;;7.80;99.90;;;;;;5119784;27;19912;-84
2024/01/28 11:21:18;;;;;;;;;;;7.60;99.90;;;;;;5154309;27;20052;-86
2024/01/28 11:23:46;;;;;;;;;;;7.50;99.90;;;;;;5120142;27;19911;-86
2024/01/28 11:26:16;;;;;;;;;;;7.60;99.90;;;;;;5137568;27;19919;-86
2024/01/28 11:28:46;;;;;;;;;;;7.50;99.90;;;;;;5119619;27;19918;-85
2024/01/28 11:31:38;;;;;;;;;;;7.60;99.90;;;;;;5102159;27;20358;-85
2024/01/28 11:34:19;;;;;;;;;;;7.50;99.90;;;;;;5101281;27;19911;-86
2024/01/28 11:36:46;;;;;;;;;;;7.50;99.90;;;;;;5103416;27;19915;-86
2024/01/28 11:39:13;;;;;;;;;;;7.50;99.90;;;;;;5120566;27;19907;-86
2024/01/28 11:41:41;;;;;;;;;;;7.60;99.90;;;;;;5102517;27;20283;-85
2024/01/28 11:44:09;;;;;;;;;;;7.70;99.90;;;;;;5102373;27;19941;-86
2024/01/28 11:46:36;;;;;;;;;;;7.80;99.90;;;;;;5136275;27;19926;-85
2024/01/28 11:49:02;;;;;;;;;;;7.80;99.90;;;;;;5103407;27;20570;-86
2024/01/28 11:51:28;;;;;;;;;;;7.90;99.90;;;;;;5102244;27;19998;-86
2024/01/28 11:53:54;;;;;;;;;;;7.90;99.90;;;;;;5102879;27;20316;-86
2024/01/28 11:56:20;;;;;;;;;;;8.00;99.60;;;;;;5120283;27;19911;-86
2024/01/28 11:58:46;;;;;;;;;;;8.10;99.70;;;;;;5154477;27;19911;-86
2024/01/28 12:01:11;;;;;;;;;;;8.20;97.70;;;;;;5119616;27;19915;-86
2024/01/28 12:03:37;;;;;;;;;;;8.20;98.20;;;;;;5119919;27;20422;-85
2024/01/28 12:06:03;;;;;;;;;;;8.40;99.60;;;;;;5102631;27;19912;-86
2024/01/28 12:08:29;;;;;;;;;;;8.50;99.10;;;;;;5153901;27;19918;-86
2024/01/28 12:10:57;;;;;;;;;;;8.80;98.00;;;;;;5154310;27;19912;-85
2024/01/28 12:13:23;;;;;;;;;;;8.70;98.60;;;;;;5152717;27;19911;-85
2024/01/28 12:15:49;;;;;;;;;;;8.60;97.90;;;;;;5119196;27;19911;-85
2024/01/28 12:18:14;;;;;;;;;;;8.60;99.10;;;;;;5118600;27;19916;-86
2024/01/28 12:20:40;;;;;;;;;;;8.30;99.50;;;;;;5119092;27;19956;-85
2024/01/28 12:23:06;;;;;;;;;;;8.00;99.90;;;;;;5119781;27;19918;-85
2024/01/28 12:25:33;;;;;;;;;;;7.90;98.50;;;;;;5101917;27;19984;-85
2024/01/28 12:27:59;;;;;;;;;;;7.80;99.50;;;;;;5118749;27;20010;-86
2024/01/28 12:30:25;;;;;;;;;;;7.80;99.80;;;;;;5118755;27;19958;-85
2024/01/28 12:32:50;;;;;;;;;;;7.80;99.90;;;;;;5102114;27;20006;-85
2024/01/28 12:35:16;;;;;;;;;;;7.70;99.90;;;;;;5119660;27;19915;-85
2024/01/28 12:37:42;;;;;;;;;;;7.70;99.90;;;;;;5102023;27;20274;-84
2024/01/28 12:40:08;;;;;;;;;;;7.70;99.90;;;;;;5102624;27;19918;-86
2024/01/28 12:42:35;;;;;;;;;;;7.80;99.90;;;;;;5102223;27;20355;-85
2024/01/28 12:48:05;;;;;;;;;;;7.80;99.90;;;;;;5137247;27;20014;-86
2024/01/28 12:50:30;;;;;;;;;;;7.80;99.90;;;;;;5102163;27;19958;-85
2024/01/28 12:52:56;;;;;;;;;;;7.70;99.90;;;;;;5102021;27;19915;-84
2024/01/28 12:55:22;;;;;;;;;;;7.60;99.90;;;;;;5118623;27;19964;-86
2024/01/28 12:57:47;;;;;;;;;;;7.70;99.90;;;;;;5118948;27;19998;-86
2024/01/28 13:00:14;;;;;;;;;;;7.70;99.90;;;;;;5100785;27;19916;-86
2024/01/28 13:02:40;;;;;;;;;;;7.60;99.90;;;;;;5118235;27;20512;-85
2024/01/28 13:05:06;;;;;;;;;;;7.60;99.90;;;;;;5100727;27;20285;-85
2024/01/28 13:07:31;;;;;;;;;;;7.70;99.90;;;;;;5100422;27;20061;-85
2024/01/28 13:09:57;;;;;;;;;;;7.70;99.90;;;;;;5118161;27;20014;-85
2024/01/28 13:15:52;;;;;;;;;;;7.70;99.90;;;;;;5136763;27;20468;-85
2024/01/28 13:18:17;;;;;;;;;;;7.80;99.90;;;;;;5100391;27;20022;-85
2024/01/28 13:20:43;;;;;;;;;;;7.80;99.90;;;;;;5100528;27;20378;-86
2024/01/28 13:23:08;;;;;;;;;;;7.80;99.90;;;;;;5100798;27;19908;-86
2024/01/28 13:25:34;;;;;;;;;;;7.80;99.90;;;;;;5118397;27;19922;-86
2024/01/28 13:28:00;;;;;;;;;;;7.80;99.90;;;;;;5100814;27;19929;-86
2024/01/28 13:30:25;;;;;;;;;;;7.80;99.90;;;;;;5100981;27;20359;-86
2024/01/28 13:32:51;;;;;;;;;;;7.80;99.90;;;;;;5117151;27;19915;-86
2024/01/28 13:35:17;;;;;;;;;;;7.80;99.90;;;;;;5100952;27;19925;-84
2024/01/28 13:38:10;;;;;;;;;;;7.80;99.90;;;;;;5100954;27;19918;-86
2024/01/28 13:40:36;;;;;;;;;;;7.90;99.90;;;;;;5118166;27;20384;-86
2024/01/28 13:43:02;;;;;;;;;;;7.90;99.90;;;;;;5117229;27;20009;-85
2024/01/28 13:45:27;;;;;;;;;;;7.90;99.90;;;;;;5117809;27;20006;-86
2024/01/28 13:47:53;;;;;;;;;;;7.80;99.90;;;;;;5101076;27;19921;-86
2024/01/28 13:50:18;;;;;;;;;;;7.90;99.90;;;;;;5099720;27;19953;-85
2024/01/28 13:52:44;;;;;;;;;;;7.80;99.90;;;;;;5099792;27;19971;-86
2024/01/28 13:55:11;;;;;;;;;;;7.80;99.90;;;;;;5099823;27;23361;-86
2024/01/28 13:57:38;;;;;;;;;;;7.70;99.90;;;;;;5118512;27;19961;-86
2024/01/28 14:00:05;;;;;;;;;;;7.70;99.90;;;;;;5135362;27;20332;-86
2024/01/28 14:02:31;;;;;;;;;;;7.60;99.90;;;;;;5117143;27;19956;-85
2024/01/28 14:04:57;;;;;;;;;;;7.60;99.90;;;;;;5116763;27;19912;-86
2024/01/28 14:07:23;;;;;;;;;;;7.60;99.90;;;;;;5116873;28;19912;-86
2024/01/28 14:09:48;;;;;;;;;;;7.60;99.90;;;;;;5136778;27;19911;-85
2024/01/28 14:12:14;;;;;;;;;;;7.60;99.90;;;;;;5100772;27;20377;-85
2024/01/28 14:14:39;;;;;;;;;;;7.60;99.90;;;;;;5117496;28;19907;-86
2024/01/28 14:17:06;;;;;;;;;;;7.50;99.90;;;;;;5100109;28;19911;-85
2024/01/28 14:19:32;;;;;;;;;;;7.50;99.90;;;;;;5100425;28;19918;-85
2024/01/28 14:21:58;;;;;;;;;;;7.40;99.90;;;;;;5120756;28;20376;-86
2024/01/28 14:24:24;;;;;;;;;;;7.40;99.90;;;;;;5117023;28;19999;-86
2024/01/28 14:26:49;;;;;;;;;;;7.20;99.90;;;;;;5099290;28;19911;-86
2024/01/28 14:29:15;;;;;;;;;;;7.20;99.90;;;;;;5099608;28;19916;-85
2024/01/28 14:31:41;;;;;;;;;;;7.10;99.90;;;;;;5099323;28;20426;-86